Terminal Aerodrome Forecast
Issued by NWS Sterling, VA

Current Version | Previous Version | Text Only | Print | Product List | Glossary Off
Versions: 1 2 3 4 5 6 7 8 9 10 11 12 13 14 15 16 17 18 19 20 21 22 23 24

000
FTUS41 KLWX 271700
TAFIAD
TAF
KIAD 271737Z 2718/2824 19008KT P6SM SCT050 SCT130
     FM272000 21009KT P6SM VCTS BKN050CB BKN130
     FM280000 20009KT 5SM TSRA BKN050CB BKN130
     FM280300 23010KT P6SM BKN050 BKN130
     FM280800 25009KT P6SM FEW050 SCT130
     FM281400 28014KT P6SM SCT050
     FM281900 29015G23KT P6SM BKN050
     FM282300 30010KT P6SM BKN050=

USA.gov is the U.S. government's official web portal to all federal, state and local government web resources and services.